aviador You're here:

OKBK Decoded Metar

KUWAIT in KUWAIT
Report Time2017-06-22 21:00:00
UTC Time2017-06-22 22:09:27
Flight Rules Old
Wind340° at 15 kt
W.Decomp.*RWY 33: 14.9 kt HW 1.8 kt RCW
W.Rank340° ranks 1
Current wind is above 340° avg. (12.3)
Visibility8000 m
Phenomena:N/A
Clouds:N/A
Expected CloudBase > 12,000 ft AGL from Temp-Dew spread
CeilingNone
Temp35°C (ISA +20)
Dew Point05°C (15% RH)
Heat Index32.6°C
AAT28.4°C
QNH1004 hPa
Density Alt2,913 ft
Elevation180 ft
Report Wrong Elevation
Raw Report
METAR OKBK 222100Z 34015KT 8000 SKC 35/05 Q1004 NOSIG=

Extra information for OKBK:More info

Metar Taf Metar & Taf Last 4 Metars F.Rules Stats Wind Profile Meteogram Temp Stats Airport Information Weather charts Add Link Nearby VenuesMetar ALERT Operation Metar Decoded Social comments